Terminal Aerodrome Forecast
Issued by NWS

Home | Current Version | Previous Version | Text Only | Print | Product List | Glossary On
Versions: 1 2 3 4 5 6 7 8 9 10 11 12 13
693
FTUS46 KHNX 091130
TAFBFL
TAF
KBFL 091130Z 0912/1012 00000KT P6SM SKC
      TEMPO 0913/0916 4SM BR=

USA.gov is the U.S. government's official web portal to all federal, state and local government web resources and services.